createdAt,value
2023-04-07T00:00:08.445Z,100995.18
2023-04-07T00:02:39.758Z,100991.83
2023-04-07T00:05:12.207Z,100992.58
2023-04-07T00:07:55.143Z,100991.96
2023-04-07T00:10:27.576Z,100993.02
2023-04-07T00:12:58.640Z,100993.11
2023-04-07T00:15:29.292Z,100992.86
2023-04-07T00:18:00.548Z,100992.79
2023-04-07T00:20:31.534Z,100993.16
2023-04-07T00:23:02.626Z,100994.81
2023-04-07T00:25:33.342Z,100994.26
2023-04-07T00:28:03.908Z,100997.07
2023-04-07T00:30:34.788Z,100991.68
2023-04-07T00:33:05.949Z,100987.02
2023-04-07T00:35:41.185Z,100988.88
2023-04-07T00:38:13.200Z,100986.00
2023-04-07T00:40:44.644Z,100987.89
2023-04-07T00:43:15.925Z,100988.15
2023-04-07T00:45:46.794Z,100992.06
2023-04-07T00:48:18.401Z,100986.56
2023-04-07T00:50:49.276Z,100981.38
2023-04-07T00:53:20.879Z,100973.80
2023-04-07T00:55:52.178Z,100972.65
2023-04-07T00:58:23.594Z,100974.27
2023-04-07T01:01:01.773Z,100976.56
2023-04-07T01:03:37.848Z,100976.22
2023-04-07T01:06:13.142Z,100977.70
2023-04-07T01:08:52.724Z,100979.85
2023-04-07T01:11:42.030Z,100993.64
2023-04-07T01:14:14.791Z,100988.73
2023-04-07T01:16:50.615Z,100977.00
2023-04-07T01:19:38.068Z,100975.08
2023-04-07T01:22:13.257Z,100970.00
2023-04-07T01:25:04.768Z,100969.75
2023-04-07T01:27:45.128Z,100970.48
2023-04-07T01:30:21.896Z,100967.28
2023-04-07T01:32:56.623Z,100967.92
2023-04-07T01:35:30.799Z,100968.54
2023-04-07T01:38:03.742Z,100970.86
2023-04-07T01:40:36.274Z,100975.55
2023-04-07T01:43:07.897Z,100977.36
2023-04-07T01:45:39.544Z,100975.21
2023-04-07T01:48:11.373Z,100975.11
2023-04-07T01:50:42.475Z,100973.48
2023-04-07T01:53:13.828Z,100968.95
2023-04-07T01:55:45.472Z,100973.05
2023-04-07T01:58:15.991Z,100973.08
2023-04-07T02:00:47.093Z,100972.72
2023-04-07T02:03:22.026Z,100973.98
2023-04-07T02:05:56.576Z,100977.39
2023-04-07T02:08:32.324Z,100976.77
2023-04-07T02:11:04.847Z,100981.72
2023-04-07T02:13:38.420Z,100981.73
2023-04-07T02:16:09.696Z,100976.91
2023-04-07T02:18:41.747Z,100978.50
2023-04-07T02:21:13.082Z,100978.61
2023-04-07T02:23:43.490Z,100978.85
2023-04-07T02:26:13.904Z,100982.60
2023-04-07T02:28:44.333Z,100978.29
2023-04-07T02:31:14.747Z,100973.64
2023-04-07T02:33:45.131Z,100976.96
2023-04-07T02:36:15.464Z,100975.87
2023-04-07T02:38:46.053Z,100975.99
2023-04-07T02:41:16.391Z,100978.34
2023-04-07T02:43:46.676Z,100980.77
2023-04-07T02:46:17.139Z,100984.95
2023-04-07T02:48:47.473Z,100981.09
2023-04-07T02:51:17.792Z,100981.90
2023-04-07T02:53:48.713Z,100981.45
2023-04-07T02:56:19.516Z,100981.17
2023-04-07T02:58:49.839Z,100982.27
2023-04-07T03:01:20.481Z,100979.02
2023-04-07T03:03:51.247Z,100981.05
2023-04-07T03:06:22.200Z,100980.16
2023-04-07T03:08:53.244Z,100977.64
2023-04-07T03:11:23.599Z,100984.18
2023-04-07T03:13:54.014Z,100984.66
2023-04-07T03:16:25.246Z,100987.34
2023-04-07T03:18:55.979Z,100985.82
2023-04-07T03:21:28.860Z,100988.21
2023-04-07T03:23:59.227Z,100985.25
2023-04-07T03:26:30.112Z,100988.04
2023-04-07T03:29:00.877Z,100983.69
2023-04-07T03:31:31.453Z,100982.67
2023-04-07T03:34:01.845Z,100982.77
2023-04-07T03:36:32.971Z,100981.36
2023-04-07T03:39:03.463Z,100981.68
2023-04-07T03:41:33.909Z,100983.67
2023-04-07T03:44:04.301Z,100983.24
2023-04-07T03:46:34.751Z,100980.09
2023-04-07T03:49:05.637Z,100986.30
2023-04-07T03:51:36.377Z,100983.96
2023-04-07T03:54:07.017Z,100984.65
2023-04-07T03:56:38.427Z,100985.98
2023-04-07T03:59:08.933Z,100986.33
2023-04-07T04:01:39.735Z,100980.91
2023-04-07T04:04:10.346Z,100987.16
2023-04-07T04:06:41.578Z,100989.05
2023-04-07T04:09:11.929Z,100988.93
2023-04-07T04:11:42.527Z,100992.96
2023-04-07T04:14:12.849Z,100997.50
2023-04-07T04:16:43.233Z,101000.16
2023-04-07T04:19:13.628Z,101000.63
2023-04-07T04:21:44.025Z,101001.38
2023-04-07T04:24:14.498Z,101007.87
2023-04-07T04:26:45.364Z,101007.58
2023-04-07T04:29:16.272Z,101006.48
2023-04-07T04:31:46.741Z,101006.40
2023-04-07T04:34:17.572Z,101006.70
2023-04-07T04:36:49.208Z,101007.33
2023-04-07T04:39:19.759Z,101007.90
2023-04-07T04:41:50.323Z,101012.34
2023-04-07T04:44:20.946Z,101012.89
2023-04-07T04:46:51.384Z,101012.77
2023-04-07T04:49:22.116Z,101014.69
2023-04-07T04:51:53.113Z,101016.46
2023-04-07T04:54:23.497Z,101016.35
2023-04-07T04:56:53.903Z,101016.70
2023-04-07T04:59:24.515Z,101017.27
2023-04-07T05:01:55.042Z,101018.22
2023-04-07T05:04:25.903Z,101018.77
2023-04-07T05:06:56.432Z,101026.59
2023-04-07T05:09:27.440Z,101023.28
2023-04-07T05:11:58.241Z,101025.58
2023-04-07T05:14:28.662Z,101026.05
2023-04-07T05:17:00.762Z,101026.36
2023-04-07T05:19:31.347Z,101023.61
2023-04-07T05:22:01.632Z,101027.52
2023-04-07T05:24:32.672Z,101031.65
2023-04-07T05:27:03.049Z,101034.56
2023-04-07T05:29:33.471Z,101036.23
2023-04-07T05:32:06.390Z,101040.09
2023-04-07T05:34:37.157Z,101044.52
2023-04-07T05:37:07.884Z,101039.66
2023-04-07T05:39:38.618Z,101046.20
2023-04-07T05:42:09.346Z,101041.29
2023-04-07T05:44:39.711Z,101041.82
2023-04-07T05:47:11.441Z,101042.97
2023-04-07T05:49:45.996Z,101042.29
2023-04-07T05:52:16.798Z,101046.40
2023-04-07T05:54:47.943Z,101050.36
2023-04-07T05:57:18.401Z,101054.71
2023-04-07T05:59:48.802Z,101055.79
2023-04-07T06:02:19.934Z,101059.82
2023-04-07T06:04:50.516Z,101060.21
2023-04-07T06:07:20.929Z,101057.70
2023-04-07T06:09:51.407Z,101059.39
2023-04-07T06:12:21.782Z,101056.68
2023-04-07T06:14:56.083Z,101059.77
2023-04-07T06:17:26.869Z,101060.06
2023-04-07T06:19:57.307Z,101065.23
2023-04-07T06:22:27.764Z,101064.68
2023-04-07T06:24:58.775Z,101064.30
2023-04-07T06:27:29.576Z,101067.14
2023-04-07T06:30:00.314Z,101066.35
2023-04-07T06:32:30.853Z,101068.69
2023-04-07T06:35:01.601Z,101070.36
2023-04-07T06:37:31.972Z,101069.95
2023-04-07T06:40:02.413Z,101072.79
2023-04-07T06:42:32.818Z,101072.85
2023-04-07T06:45:03.637Z,101071.08
2023-04-07T06:47:34.107Z,101072.65
2023-04-07T06:50:04.953Z,101076.02
2023-04-07T06:52:35.675Z,101075.30
2023-04-07T06:55:07.701Z,101074.42
2023-04-07T06:57:38.060Z,101076.60
2023-04-07T07:00:12.032Z,101075.07
2023-04-07T07:02:42.674Z,101078.64
2023-04-07T07:05:13.294Z,101081.44
2023-04-07T07:07:44.098Z,101080.41
2023-04-07T07:10:14.746Z,101082.31
2023-04-07T07:12:45.418Z,101080.94
2023-04-07T07:15:16.051Z,101079.58
2023-04-07T07:17:46.880Z,101079.00
2023-04-07T07:20:17.549Z,101080.24
2023-04-07T07:22:47.972Z,101081.40
2023-04-07T07:25:18.591Z,101082.17
2023-04-07T07:27:53.214Z,101082.76
2023-04-07T07:30:25.446Z,101083.56
2023-04-07T07:32:56.270Z,101087.42
2023-04-07T07:35:26.845Z,101087.86
2023-04-07T07:37:57.164Z,101089.08
2023-04-07T07:40:27.519Z,101092.70
2023-04-07T07:42:58.356Z,101095.21
2023-04-07T07:45:28.952Z,101093.34
2023-04-07T07:47:59.341Z,101096.83
2023-04-07T07:50:31.368Z,101103.19
2023-04-07T07:53:02.032Z,101104.64
2023-04-07T07:55:32.479Z,101110.14
2023-04-07T07:58:02.881Z,101111.29
2023-04-07T08:00:33.287Z,101112.60
2023-04-07T08:03:04.092Z,101114.48
2023-04-07T08:05:36.265Z,101117.98
2023-04-07T08:08:06.688Z,101121.08
2023-04-07T08:10:37.430Z,101124.73
2023-04-07T08:13:08.125Z,101123.48
2023-04-07T08:15:40.620Z,101122.40
2023-04-07T08:18:11.504Z,101123.15
2023-04-07T08:20:42.460Z,101123.91
2023-04-07T08:23:13.347Z,101126.65
2023-04-07T08:25:43.841Z,101120.95
2023-04-07T08:28:14.247Z,101127.80
2023-04-07T08:30:44.773Z,101127.98
2023-04-07T08:33:15.513Z,101127.08
2023-04-07T08:35:47.583Z,101128.86
2023-04-07T08:38:21.168Z,101129.10
2023-04-07T08:40:54.723Z,101135.83
2023-04-07T08:43:26.514Z,101132.83
2023-04-07T08:45:59.123Z,101132.36
2023-04-07T08:48:34.003Z,101134.13
2023-04-07T08:51:10.285Z,101134.38
2023-04-07T08:53:44.750Z,101137.11
2023-04-07T08:56:15.653Z,101141.73
2023-04-07T08:58:46.429Z,101138.24
2023-04-07T09:01:17.488Z,101140.52
2023-04-07T09:03:49.880Z,101139.83
2023-04-07T09:06:20.887Z,101137.13
2023-04-07T09:08:51.289Z,101141.25
2023-04-07T09:11:23.374Z,101141.25
2023-04-07T09:13:53.698Z,101139.84
2023-04-07T09:16:24.929Z,101138.27
2023-04-07T09:18:56.205Z,101146.57
2023-04-07T09:21:27.106Z,101147.54
2023-04-07T09:23:58.017Z,101147.67
2023-04-07T09:26:31.337Z,101149.92
2023-04-07T09:29:04.006Z,101150.15
2023-04-07T09:31:48.020Z,101145.76
2023-04-07T09:34:29.512Z,101149.96
2023-04-07T09:37:00.533Z,101143.60
2023-04-07T09:39:31.845Z,101144.04
2023-04-07T09:42:08.906Z,101145.42
2023-04-07T09:44:45.130Z,101149.32
2023-04-07T09:47:15.948Z,101148.58
2023-04-07T09:49:53.968Z,101151.70
2023-04-07T09:52:27.374Z,101152.07
2023-04-07T09:54:59.828Z,101148.85
2023-04-07T09:57:30.951Z,101149.25
2023-04-07T10:00:02.144Z,101146.14
2023-04-07T10:02:33.534Z,101151.30
2023-04-07T10:05:04.420Z,101149.23
2023-04-07T10:07:35.840Z,101145.00
2023-04-07T10:10:08.528Z,101143.15
2023-04-07T10:12:41.349Z,101147.32
2023-04-07T10:15:15.918Z,101148.11
2023-04-07T10:17:49.321Z,101147.02
2023-04-07T10:20:21.717Z,101144.98
2023-04-07T10:22:54.607Z,101144.92
2023-04-07T10:25:26.778Z,101138.56
2023-04-07T10:28:00.860Z,101145.08
2023-04-07T10:30:33.775Z,101144.25
2023-04-07T10:33:04.280Z,101143.75
2023-04-07T10:36:06.189Z,101147.30
2023-04-07T10:38:36.757Z,101145.70
2023-04-07T10:41:36.966Z,101150.48
2023-04-07T10:44:08.708Z,101151.36
2023-04-07T10:47:07.590Z,101149.19
2023-04-07T10:49:38.684Z,101152.83
2023-04-07T10:52:28.443Z,101150.73
2023-04-07T10:55:36.859Z,101145.56
2023-04-07T10:58:24.903Z,101149.41
2023-04-07T11:01:22.710Z,101147.95
2023-04-07T11:04:01.561Z,101149.08
2023-04-07T11:06:32.621Z,101147.08
2023-04-07T11:09:03.798Z,101143.63
2023-04-07T11:11:42.505Z,101139.23
2023-04-07T11:14:26.990Z,101135.58
2023-04-07T11:16:58.567Z,101141.87
2023-04-07T11:19:29.096Z,101139.81
2023-04-07T11:22:26.720Z,101139.17
2023-04-07T11:25:00.324Z,101143.23
2023-04-07T11:27:31.856Z,101142.19
2023-04-07T11:30:03.458Z,101139.85
2023-04-07T11:32:33.908Z,101145.41
2023-04-07T11:35:09.086Z,101144.46
2023-04-07T11:37:40.033Z,101149.27
2023-04-07T11:40:14.542Z,101142.05
2023-04-07T11:42:46.334Z,101143.21
2023-04-07T11:45:20.813Z,101147.27
2023-04-07T11:47:51.835Z,101141.77
2023-04-07T11:50:40.698Z,101147.29
2023-04-07T11:53:11.748Z,101136.16
2023-04-07T11:55:42.369Z,101141.59
2023-04-07T11:58:14.372Z,101136.61
2023-04-07T12:00:57.528Z,101132.91
2023-04-07T12:03:28.672Z,101135.44
2023-04-07T12:05:59.173Z,101134.73
2023-04-07T12:08:42.184Z,101133.56
2023-04-07T12:11:13.334Z,101136.61
2023-04-07T12:13:43.637Z,101138.77
2023-04-07T12:16:13.996Z,101135.59
2023-04-07T12:18:44.697Z,101131.47
2023-04-07T12:21:15.651Z,101133.91
2023-04-07T12:23:46.197Z,101135.71
2023-04-07T12:26:16.849Z,101132.95
2023-04-07T12:28:47.127Z,101134.19
2023-04-07T12:31:17.584Z,101134.66
2023-04-07T12:33:48.316Z,101135.00
2023-04-07T12:36:18.835Z,101137.16
2023-04-07T12:38:49.696Z,101134.77
2023-04-07T12:41:20.017Z,101134.34
2023-04-07T12:43:50.861Z,101135.52
2023-04-07T12:46:21.736Z,101136.38
2023-04-07T12:48:52.609Z,101142.73
2023-04-07T12:51:23.390Z,101135.23
2023-04-07T12:53:54.611Z,101137.90
2023-04-07T12:56:25.229Z,101140.40
2023-04-07T12:58:55.867Z,101134.91
2023-04-07T13:01:27.239Z,101134.31
2023-04-07T13:03:58.492Z,101133.31
2023-04-07T13:06:28.994Z,101134.59
2023-04-07T13:08:59.377Z,101135.63
2023-04-07T13:11:29.905Z,101140.07
2023-04-07T13:14:01.401Z,101141.05
2023-04-07T13:16:32.177Z,101135.23
2023-04-07T13:19:04.009Z,101139.41
2023-04-07T13:21:46.168Z,101140.71
2023-04-07T13:24:18.391Z,101136.44
2023-04-07T13:26:49.284Z,101131.60
2023-04-07T13:29:19.827Z,101133.04
2023-04-07T13:31:50.669Z,101136.54
2023-04-07T13:34:21.124Z,101135.54
2023-04-07T13:36:51.809Z,101134.65
2023-04-07T13:39:22.847Z,101130.91
2023-04-07T13:41:53.610Z,101135.60
2023-04-07T13:44:23.970Z,101136.98
2023-04-07T13:46:54.884Z,101135.89
2023-04-07T13:49:25.785Z,101131.98
2023-04-07T13:51:56.369Z,101135.77
2023-04-07T13:54:27.292Z,101133.14
2023-04-07T13:56:58.011Z,101130.85
2023-04-07T13:59:29.757Z,101128.92
2023-04-07T14:02:00.707Z,101130.08
2023-04-07T14:04:31.276Z,101129.41
2023-04-07T14:07:01.712Z,101128.35
2023-04-07T14:09:32.107Z,101128.91
2023-04-07T14:12:02.484Z,101122.01
2023-04-07T14:14:33.217Z,101116.39
2023-04-07T14:17:03.625Z,101121.70
2023-04-07T14:19:34.995Z,101123.48
2023-04-07T14:22:05.655Z,101126.09
2023-04-07T14:24:36.197Z,101126.21
2023-04-07T14:27:06.656Z,101127.09
2023-04-07T14:29:37.075Z,101127.59
2023-04-07T14:32:07.624Z,101125.77
2023-04-07T14:34:59.391Z,101119.39
2023-04-07T14:37:30.555Z,101125.50
2023-04-07T14:40:03.017Z,101130.09
2023-04-07T14:42:34.379Z,101126.11
2023-04-07T14:45:04.956Z,101118.39
2023-04-07T14:47:35.929Z,101123.58
2023-04-07T14:50:07.633Z,101125.56
2023-04-07T14:52:39.532Z,101129.52
2023-04-07T14:55:11.506Z,101129.98
2023-04-07T14:57:41.908Z,101129.17
2023-04-07T15:00:14.356Z,101130.87
2023-04-07T15:02:45.728Z,101133.05
2023-04-07T15:05:17.295Z,101135.36
2023-04-07T15:07:49.820Z,101132.73
2023-04-07T15:10:21.152Z,101140.64
2023-04-07T15:12:51.953Z,101139.08
2023-04-07T15:15:22.679Z,101140.84
2023-04-07T15:17:53.454Z,101141.80
2023-04-07T15:20:24.288Z,101141.82
2023-04-07T15:22:54.666Z,101142.13
2023-04-07T15:25:25.448Z,101143.82
2023-04-07T15:27:56.164Z,101144.96
2023-04-07T15:30:26.682Z,101147.41
2023-04-07T15:33:01.827Z,101149.84
2023-04-07T15:35:32.360Z,101146.21
2023-04-07T15:38:02.791Z,101143.33
2023-04-07T15:40:36.972Z,101152.64
2023-04-07T15:43:10.462Z,101147.55
2023-04-07T15:45:45.873Z,101147.86
2023-04-07T15:48:17.208Z,101148.82
2023-04-07T15:50:47.566Z,101147.80
2023-04-07T15:53:18.053Z,101151.40
2023-04-07T15:55:48.506Z,101150.44
2023-04-07T15:58:19.204Z,101152.02
2023-04-07T16:00:49.755Z,101154.87
2023-04-07T16:03:20.409Z,101159.27
2023-04-07T16:05:51.920Z,101161.65
2023-04-07T16:08:23.461Z,101159.18
2023-04-07T16:10:53.933Z,101155.91
2023-04-07T16:13:24.271Z,101159.50
2023-04-07T16:15:58.457Z,101169.70
2023-04-07T16:18:30.253Z,101168.83
2023-04-07T16:21:03.740Z,101172.59
2023-04-07T16:23:35.440Z,101175.13
2023-04-07T16:26:06.317Z,101180.59
2023-04-07T16:28:38.964Z,101184.73
2023-04-07T16:31:11.437Z,101188.77
2023-04-07T16:33:42.256Z,101187.75
2023-04-07T16:36:13.304Z,101191.69
2023-04-07T16:38:44.217Z,101198.39
2023-04-07T16:41:14.950Z,101200.24
2023-04-07T16:43:45.345Z,101203.17
2023-04-07T16:46:15.701Z,101204.80
2023-04-07T16:48:46.113Z,101212.61
2023-04-07T16:51:20.221Z,101220.89
2023-04-07T16:53:51.274Z,101222.13
2023-04-07T16:56:23.418Z,101223.73
2023-04-07T16:58:54.637Z,101230.38
2023-04-07T17:01:29.373Z,101238.89
2023-04-07T17:04:00.284Z,101239.92
2023-04-07T17:06:31.658Z,101241.46
2023-04-07T17:09:01.992Z,101242.23
2023-04-07T17:11:32.379Z,101241.47
2023-04-07T17:14:03.342Z,101248.87
2023-04-07T17:16:33.709Z,101250.02
2023-04-07T17:19:04.014Z,101256.44
2023-04-07T17:21:37.798Z,101253.30
2023-04-07T17:24:08.940Z,101258.30
2023-04-07T17:26:39.355Z,101264.92
2023-04-07T17:29:10.602Z,101267.16
2023-04-07T17:31:41.139Z,101270.02
2023-04-07T17:34:13.301Z,101275.70
2023-04-07T17:36:43.676Z,101277.83
2023-04-07T17:39:14.274Z,101280.86
2023-04-07T17:41:46.885Z,101284.00
2023-04-07T17:44:17.605Z,101284.32
2023-04-07T17:46:48.500Z,101284.86
2023-04-07T17:49:19.399Z,101289.41
2023-04-07T17:51:50.217Z,101291.15
2023-04-07T17:54:20.645Z,101295.58
2023-04-07T17:56:51.026Z,101298.86
2023-04-07T17:59:21.801Z,101298.36
2023-04-07T18:01:52.577Z,101301.32
2023-04-07T18:04:23.648Z,101301.61
2023-04-07T18:06:54.614Z,101302.66
2023-04-07T18:09:24.978Z,101304.66
2023-04-07T18:11:55.646Z,101307.70
2023-04-07T18:14:28.034Z,101310.46
2023-04-07T18:16:58.601Z,101315.61
2023-04-07T18:19:31.271Z,101324.46
2023-04-07T18:22:01.854Z,101326.21
2023-04-07T18:24:32.620Z,101329.90
2023-04-07T18:27:03.975Z,101334.63
2023-04-07T18:29:34.876Z,101340.38
2023-04-07T18:32:05.240Z,101343.02
2023-04-07T18:34:36.147Z,101344.50
2023-04-07T18:37:07.244Z,101352.09
2023-04-07T18:39:38.358Z,101354.44
2023-04-07T18:42:09.285Z,101359.52
2023-04-07T18:44:39.652Z,101359.29
2023-04-07T18:47:10.026Z,101361.20
2023-04-07T18:49:40.583Z,101365.61
2023-04-07T18:52:11.400Z,101370.38
2023-04-07T18:54:41.820Z,101380.22
2023-04-07T18:57:12.598Z,101379.85
2023-04-07T18:59:43.701Z,101379.75
2023-04-07T19:02:14.168Z,101392.02
2023-04-07T19:04:44.676Z,101391.77
2023-04-07T19:07:15.380Z,101391.02
2023-04-07T19:09:46.722Z,101391.50
2023-04-07T19:12:17.152Z,101392.88
2023-04-07T19:14:47.841Z,101394.92
2023-04-07T19:17:18.589Z,101402.93
2023-04-07T19:19:49.724Z,101405.69
2023-04-07T19:22:20.447Z,101409.81
2023-04-07T19:24:51.737Z,101415.45
2023-04-07T19:27:23.324Z,101416.19
2023-04-07T19:29:53.686Z,101419.23
2023-04-07T19:32:24.388Z,101422.44
2023-04-07T19:34:55.217Z,101427.74
2023-04-07T19:37:25.963Z,101426.05
2023-04-07T19:40:03.010Z,101428.45
2023-04-07T19:42:34.769Z,101432.40
2023-04-07T19:45:08.009Z,101436.11
2023-04-07T19:47:39.680Z,101435.35
2023-04-07T19:50:14.177Z,101439.94
2023-04-07T19:52:45.517Z,101435.30
2023-04-07T19:55:16.307Z,101437.05
2023-04-07T19:57:47.490Z,101441.27
2023-04-07T20:00:19.000Z,101442.38
2023-04-07T20:02:50.924Z,101439.66
2023-04-07T20:05:22.351Z,101447.54
2023-04-07T20:07:52.839Z,101445.20
2023-04-07T20:10:23.296Z,101448.11
2023-04-07T20:12:53.975Z,101447.00
2023-04-07T20:15:25.214Z,101447.83
2023-04-07T20:17:56.422Z,101450.49
2023-04-07T20:20:26.796Z,101454.12
2023-04-07T20:22:57.426Z,101454.82
2023-04-07T20:25:27.881Z,101456.14
2023-04-07T20:27:58.340Z,101457.33
2023-04-07T20:30:28.747Z,101456.09
2023-04-07T20:32:59.178Z,101456.53
2023-04-07T20:35:30.460Z,101462.23
2023-04-07T20:38:02.729Z,101466.10
2023-04-07T20:40:35.588Z,101471.15
2023-04-07T20:43:06.426Z,101471.23
2023-04-07T20:45:37.228Z,101471.86
2023-04-07T20:48:07.861Z,101472.06
2023-04-07T20:50:38.427Z,101475.71
2023-04-07T20:53:09.179Z,101472.14
2023-04-07T20:55:40.076Z,101478.63
2023-04-07T20:58:10.780Z,101479.42
2023-04-07T21:00:41.275Z,101480.17
2023-04-07T21:03:12.141Z,101482.31
2023-04-07T21:05:43.740Z,101479.58
2023-04-07T21:08:14.902Z,101481.39
2023-04-07T21:10:45.507Z,101476.86
2023-04-07T21:13:15.973Z,101482.42
2023-04-07T21:15:46.551Z,101484.70
2023-04-07T21:18:19.141Z,101481.04
2023-04-07T21:20:50.539Z,101475.92
2023-04-07T21:23:21.238Z,101477.16
2023-04-07T21:25:51.763Z,101484.16
2023-04-07T21:28:22.134Z,101480.37
2023-04-07T21:30:55.780Z,101482.16
2023-04-07T21:33:26.299Z,101485.17
2023-04-07T21:35:56.692Z,101487.89
2023-04-07T21:38:27.190Z,101490.86
2023-04-07T21:40:57.867Z,101489.11
2023-04-07T21:43:29.143Z,101485.39
2023-04-07T21:45:59.547Z,101487.80
2023-04-07T21:48:30.304Z,101488.98
2023-04-07T21:51:01.062Z,101488.91
2023-04-07T21:53:31.988Z,101496.08
2023-04-07T21:56:02.712Z,101496.33
2023-04-07T21:58:33.459Z,101497.04
2023-04-07T22:01:04.098Z,101492.73
2023-04-07T22:03:34.895Z,101498.96
2023-04-07T22:06:05.914Z,101496.92
2023-04-07T22:08:36.279Z,101496.84
2023-04-07T22:11:07.641Z,101496.41
2023-04-07T22:13:38.941Z,101504.61
2023-04-07T22:16:09.995Z,101503.22
2023-04-07T22:18:40.857Z,101504.70
2023-04-07T22:21:12.014Z,101506.27
2023-04-07T22:23:42.741Z,101507.48
2023-04-07T22:26:13.471Z,101507.63
2023-04-07T22:28:44.241Z,101506.67
2023-04-07T22:31:14.999Z,101502.72
2023-04-07T22:33:45.837Z,101506.31
2023-04-07T22:36:17.030Z,101503.68
2023-04-07T22:38:48.152Z,101504.65
2023-04-07T22:41:19.067Z,101504.73
2023-04-07T22:43:49.518Z,101509.95
2023-04-07T22:46:19.865Z,101507.87
2023-04-07T22:48:51.204Z,101505.36
2023-04-07T22:51:22.504Z,101508.55
2023-04-07T22:53:53.198Z,101511.84
2023-04-07T22:56:24.286Z,101513.71
2023-04-07T22:58:55.113Z,101515.23
2023-04-07T23:01:26.355Z,101518.07
2023-04-07T23:03:57.403Z,101519.61
2023-04-07T23:06:29.198Z,101513.84
2023-04-07T23:08:59.930Z,101516.73
2023-04-07T23:11:30.435Z,101518.25
2023-04-07T23:14:04.804Z,101513.80
2023-04-07T23:16:35.816Z,101518.45
2023-04-07T23:19:06.791Z,101516.19
2023-04-07T23:21:37.928Z,101516.02
2023-04-07T23:24:08.335Z,101510.86
2023-04-07T23:26:38.763Z,101514.89
2023-04-07T23:29:09.152Z,101513.94
2023-04-07T23:31:39.607Z,101513.50
2023-04-07T23:34:09.976Z,101517.50
2023-04-07T23:36:42.117Z,101517.16
2023-04-07T23:39:12.845Z,101516.32
2023-04-07T23:41:44.001Z,101512.63
2023-04-07T23:44:14.359Z,101512.41
2023-04-07T23:46:45.286Z,101513.91
2023-04-07T23:49:16.738Z,101511.29
2023-04-07T23:51:47.318Z,101511.95
2023-04-07T23:54:17.692Z,101515.09
2023-04-07T23:56:48.066Z,101518.59
2023-04-07T23:59:19.238Z,101517.79
